createdAt,value
2018-09-19T00:01:02.466Z,80.60
2018-09-19T00:03:37.220Z,80.70
2018-09-19T00:06:11.620Z,80.50
2018-09-19T00:08:46.208Z,81.00
2018-09-19T00:11:20.834Z,81.60
2018-09-19T00:13:55.668Z,81.80
2018-09-19T00:16:30.707Z,81.90
2018-09-19T00:19:05.371Z,82.10
2018-09-19T00:21:39.800Z,82.50
2018-09-19T00:24:14.740Z,81.90
2018-09-19T00:26:49.273Z,82.20
2018-09-19T00:29:24.183Z,82.60
2018-09-19T00:31:59.021Z,82.40
2018-09-19T00:34:34.439Z,82.60
2018-09-19T00:37:08.992Z,82.00
2018-09-19T00:39:43.866Z,82.10
2018-09-19T00:42:18.258Z,82.60
2018-09-19T00:44:53.104Z,82.50
2018-09-19T00:47:27.551Z,82.60
2018-09-19T00:50:02.096Z,82.60
2018-09-19T00:52:36.818Z,82.40
2018-09-19T00:55:11.421Z,83.00
2018-09-19T00:57:46.180Z,82.10
2018-09-19T01:00:20.836Z,81.80
2018-09-19T01:02:55.356Z,82.40
2018-09-19T01:05:29.745Z,82.60
2018-09-19T01:08:04.976Z,82.50
2018-09-19T01:10:39.406Z,82.30
2018-09-19T01:13:13.723Z,82.40
2018-09-19T01:15:48.707Z,82.20
2018-09-19T01:18:23.505Z,82.00
2018-09-19T01:20:57.829Z,83.10
2018-09-19T01:23:33.283Z,82.60
2018-09-19T01:26:08.251Z,82.30
2018-09-19T01:28:42.923Z,82.40
2018-09-19T01:31:19.196Z,82.50
2018-09-19T01:33:53.647Z,82.50
2018-09-19T01:36:27.864Z,82.50
2018-09-19T01:39:02.663Z,82.50
2018-09-19T01:41:37.160Z,82.40
2018-09-19T01:44:11.912Z,82.40
2018-09-19T01:46:46.664Z,82.40
2018-09-19T01:49:21.133Z,82.80
2018-09-19T01:51:55.727Z,82.80
2018-09-19T01:54:30.515Z,82.80
2018-09-19T01:57:06.006Z,83.10
2018-09-19T01:59:40.732Z,83.10
2018-09-19T02:02:15.314Z,83.20
2018-09-19T02:04:50.574Z,83.10
2018-09-19T02:07:24.768Z,82.90
2018-09-19T02:09:59.392Z,83.00
2018-09-19T02:12:34.386Z,83.10
2018-09-19T02:15:08.991Z,83.00
2018-09-19T02:17:43.636Z,82.90
2018-09-19T02:20:18.293Z,83.00
2018-09-19T02:22:52.967Z,82.50
2018-09-19T02:25:27.840Z,82.70
2018-09-19T02:28:02.566Z,82.60
2018-09-19T02:30:37.571Z,82.90
2018-09-19T02:33:11.780Z,83.30
2018-09-19T02:35:46.636Z,83.30
2018-09-19T02:38:21.421Z,82.70
2018-09-19T02:40:55.977Z,83.00
2018-09-19T02:43:30.894Z,83.10
2018-09-19T02:46:05.366Z,83.60
2018-09-19T02:48:40.077Z,83.60
2018-09-19T02:51:16.078Z,82.90
2018-09-19T02:53:50.705Z,82.90
2018-09-19T02:56:25.043Z,83.20
2018-09-19T02:58:59.770Z,83.30
2018-09-19T03:01:34.369Z,83.50
2018-09-19T03:04:09.281Z,83.40
2018-09-19T03:06:43.637Z,83.30
2018-09-19T03:09:18.637Z,83.10
2018-09-19T03:11:52.760Z,83.20
2018-09-19T03:14:27.435Z,83.40
2018-09-19T03:17:02.026Z,83.60
2018-09-19T03:19:36.639Z,83.60
2018-09-19T03:22:11.221Z,83.50
2018-09-19T03:24:45.896Z,83.40
2018-09-19T03:27:20.515Z,83.50
2018-09-19T03:29:55.106Z,83.40
2018-09-19T03:32:30.155Z,83.50
2018-09-19T03:35:04.639Z,83.60
2018-09-19T03:37:39.367Z,83.40
2018-09-19T03:40:14.132Z,83.70
2018-09-19T03:42:48.779Z,83.40
2018-09-19T03:45:23.459Z,83.50
2018-09-19T03:47:58.068Z,83.70
2018-09-19T03:50:32.872Z,84.00
2018-09-19T03:53:07.216Z,84.00
2018-09-19T03:55:41.896Z,84.30
2018-09-19T03:58:16.629Z,84.30
2018-09-19T04:00:51.009Z,84.50
2018-09-19T04:03:25.810Z,84.60
2018-09-19T04:06:00.313Z,84.50
2018-09-19T04:08:35.287Z,84.60
2018-09-19T04:11:09.616Z,84.50
2018-09-19T04:13:45.509Z,84.50
2018-09-19T04:16:19.924Z,84.60
2018-09-19T04:18:54.584Z,85.30
2018-09-19T04:21:29.181Z,84.70
2018-09-19T04:24:03.792Z,84.80
2018-09-19T04:26:38.245Z,85.00
2018-09-19T04:29:13.241Z,85.20
2018-09-19T04:31:47.609Z,85.30
2018-09-19T04:34:22.244Z,85.20
2018-09-19T04:36:57.111Z,85.20
2018-09-19T04:39:31.378Z,85.10
2018-09-19T04:42:06.519Z,85.30
2018-09-19T04:44:41.292Z,85.30
2018-09-19T04:47:15.648Z,85.40
2018-09-19T04:49:50.457Z,85.40
2018-09-19T04:52:25.391Z,85.50
2018-09-19T04:55:00.096Z,86.10
2018-09-19T04:57:34.737Z,85.70
2018-09-19T05:00:09.636Z,85.80
2018-09-19T05:02:44.603Z,85.90
2018-09-19T05:05:18.922Z,85.90
2018-09-19T05:07:54.973Z,86.00
2018-09-19T05:10:29.162Z,86.10
2018-09-19T05:13:03.728Z,86.20
2018-09-19T05:15:38.164Z,86.80
2018-09-19T05:18:12.794Z,86.70
2018-09-19T05:20:47.378Z,86.70
2018-09-19T05:23:21.996Z,86.70
2018-09-19T05:25:56.647Z,86.60
2018-09-19T05:28:31.140Z,86.50
2018-09-19T05:31:05.849Z,86.30
2018-09-19T05:33:40.290Z,86.30
2018-09-19T05:36:14.996Z,86.30
2018-09-19T05:38:49.639Z,86.20
2018-09-19T05:41:24.363Z,86.30
2018-09-19T05:43:58.964Z,86.40
2018-09-19T05:46:33.697Z,86.50
2018-09-19T05:49:08.313Z,86.50
2018-09-19T05:51:43.161Z,87.00
2018-09-19T05:54:18.939Z,86.80
2018-09-19T05:56:54.130Z,86.10
2018-09-19T05:59:28.969Z,85.60
2018-09-19T06:02:04.375Z,84.90
2018-09-19T06:04:39.213Z,84.00
2018-09-19T06:07:14.388Z,83.40
2018-09-19T06:09:49.123Z,82.50
2018-09-19T06:12:24.226Z,81.60
2018-09-19T06:14:58.800Z,81.30
2018-09-19T06:17:34.000Z,80.40
2018-09-19T06:20:08.964Z,80.10
2018-09-19T06:22:43.409Z,79.20
2018-09-19T06:25:18.020Z,78.60
2018-09-19T06:27:52.729Z,78.20
2018-09-19T06:30:27.349Z,77.80
2018-09-19T06:33:02.043Z,77.60
2018-09-19T06:35:37.082Z,77.20
2018-09-19T06:38:11.493Z,77.20
2018-09-19T06:40:46.298Z,77.20
2018-09-19T06:43:20.803Z,77.80
2018-09-19T06:45:55.240Z,77.80
2018-09-19T06:48:29.970Z,77.50
2018-09-19T06:51:05.508Z,77.30
2018-09-19T06:53:40.191Z,77.30
2018-09-19T06:56:14.941Z,76.60
2018-09-19T06:58:50.101Z,76.40
2018-09-19T07:01:26.248Z,76.60
2018-09-19T07:04:01.245Z,76.60
2018-09-19T07:06:36.005Z,77.00
2018-09-19T07:09:10.893Z,76.80
2018-09-19T07:11:45.888Z,76.50
2018-09-19T07:14:21.082Z,76.50
2018-09-19T07:16:55.498Z,76.40
2018-09-19T07:19:29.926Z,76.10
2018-09-19T07:22:05.236Z,75.70
2018-09-19T07:24:40.311Z,75.40
2018-09-19T07:27:14.963Z,75.20
2018-09-19T07:29:49.866Z,74.60
2018-09-19T07:32:24.052Z,73.80
2018-09-19T07:34:58.441Z,73.70
2018-09-19T07:37:33.032Z,73.00
2018-09-19T07:40:07.707Z,71.60
2018-09-19T07:42:42.841Z,71.10
2018-09-19T07:45:17.001Z,70.20
2018-09-19T07:47:51.544Z,69.50
2018-09-19T07:50:26.197Z,68.70
2018-09-19T07:53:03.540Z,68.20
2018-09-19T07:55:38.739Z,68.20
2018-09-19T07:58:12.952Z,67.60
2018-09-19T08:00:47.630Z,68.10
2018-09-19T08:03:22.138Z,67.40
2018-09-19T08:05:56.832Z,67.10
2018-09-19T08:08:31.249Z,66.00
2018-09-19T08:11:05.777Z,65.70
2018-09-19T08:13:41.485Z,65.10
2018-09-19T08:16:15.825Z,65.20
2018-09-19T08:18:51.181Z,64.80
2018-09-19T08:21:25.918Z,64.30
2018-09-19T08:24:01.116Z,64.30
2018-09-19T08:26:35.437Z,62.70
2018-09-19T08:29:10.295Z,62.40
2018-09-19T08:31:45.305Z,61.10
2018-09-19T08:34:20.351Z,61.40
2018-09-19T08:36:56.132Z,61.00
2018-09-19T08:39:30.638Z,60.80
2018-09-19T08:42:05.369Z,61.00
2018-09-19T08:44:40.010Z,59.30
2018-09-19T08:47:14.723Z,59.20
2018-09-19T08:49:49.991Z,58.10
2018-09-19T08:52:25.136Z,58.10
2018-09-19T08:54:59.829Z,58.20
2018-09-19T08:57:34.308Z,57.70
2018-09-19T09:00:09.800Z,58.10
2018-09-19T09:02:44.507Z,56.60
2018-09-19T09:05:19.074Z,56.20
2018-09-19T09:07:53.768Z,57.20
2018-09-19T09:10:28.844Z,56.50
2018-09-19T09:13:03.934Z,56.00
2018-09-19T09:15:38.456Z,56.10
2018-09-19T09:18:12.808Z,57.20
2018-09-19T09:20:47.501Z,57.00
2018-09-19T09:23:22.188Z,56.90
2018-09-19T09:25:57.270Z,58.10
2018-09-19T09:28:32.841Z,58.40
2018-09-19T09:31:07.895Z,57.60
2018-09-19T09:33:42.633Z,58.70
2018-09-19T09:36:17.200Z,59.60
2018-09-19T09:38:51.809Z,60.80
2018-09-19T09:41:26.525Z,60.80
2018-09-19T09:44:01.335Z,60.90
2018-09-19T09:46:35.998Z,61.70
2018-09-19T09:49:13.183Z,62.90
2018-09-19T09:51:47.938Z,63.40
2018-09-19T09:54:23.081Z,61.90
2018-09-19T09:57:01.443Z,61.40
2018-09-19T09:59:35.843Z,60.20
2018-09-19T10:02:11.081Z,59.90
2018-09-19T10:04:47.531Z,59.90
2018-09-19T10:07:21.742Z,58.50
2018-09-19T10:09:57.048Z,58.10
2018-09-19T10:12:34.107Z,59.40
2018-09-19T10:15:12.592Z,58.70
2018-09-19T10:17:49.156Z,58.50
2018-09-19T10:20:25.181Z,56.50
2018-09-19T10:22:59.345Z,55.70
2018-09-19T10:25:33.894Z,55.60
2018-09-19T10:28:09.172Z,56.40
2018-09-19T10:30:44.094Z,56.10
2018-09-19T10:33:23.110Z,56.50
2018-09-19T10:35:59.432Z,58.10
2018-09-19T10:38:34.259Z,58.30
2018-09-19T10:41:08.836Z,58.30
2018-09-19T10:43:44.879Z,58.00
2018-09-19T10:46:19.769Z,58.80
2018-09-19T10:48:55.542Z,59.50
2018-09-19T10:51:30.480Z,60.30
2018-09-19T10:54:05.903Z,60.10
2018-09-19T10:56:42.592Z,60.00
2018-09-19T10:59:19.635Z,60.60
2018-09-19T11:01:55.471Z,61.30
2018-09-19T11:04:32.047Z,61.40
2018-09-19T11:07:08.737Z,62.20
2018-09-19T11:09:44.882Z,61.70
2018-09-19T11:12:20.402Z,62.00
2018-09-19T11:15:00.893Z,62.40
2018-09-19T11:17:46.407Z,63.10
2018-09-19T11:20:24.835Z,63.40
2018-09-19T11:23:05.342Z,63.90
2018-09-19T11:25:47.228Z,63.40
2018-09-19T11:28:21.843Z,65.00
2018-09-19T11:30:56.835Z,64.90
2018-09-19T11:33:31.856Z,65.20
2018-09-19T11:36:07.065Z,65.60
2018-09-19T11:38:41.604Z,65.30
2018-09-19T11:41:17.468Z,65.50
2018-09-19T11:43:51.885Z,65.60
2018-09-19T11:46:26.988Z,66.40
2018-09-19T11:49:01.460Z,66.20
2018-09-19T11:51:36.337Z,66.90
2018-09-19T11:54:11.170Z,67.20
2018-09-19T11:56:45.461Z,67.00
2018-09-19T11:59:21.035Z,66.50
2018-09-19T12:01:55.337Z,66.30
2018-09-19T12:04:30.237Z,66.10
2018-09-19T12:07:04.652Z,65.60
2018-09-19T12:09:39.428Z,65.80
2018-09-19T12:12:14.217Z,65.40
2018-09-19T12:14:48.913Z,65.30
2018-09-19T12:17:23.968Z,64.20
2018-09-19T12:19:58.238Z,64.30
2018-09-19T12:22:32.950Z,64.00
2018-09-19T12:25:08.097Z,64.20
2018-09-19T12:27:42.309Z,63.50
2018-09-19T12:30:17.025Z,64.40
2018-09-19T12:32:52.165Z,64.10
2018-09-19T12:35:26.681Z,64.80
2018-09-19T12:38:01.692Z,64.30
2018-09-19T12:40:36.775Z,65.00
2018-09-19T12:43:11.737Z,64.30
2018-09-19T12:45:46.420Z,64.40
2018-09-19T12:48:21.151Z,62.60
2018-09-19T12:50:56.221Z,62.70
2018-09-19T12:53:31.137Z,62.10
2018-09-19T12:56:05.861Z,62.10
2018-09-19T12:58:40.300Z,61.90
2018-09-19T13:01:15.088Z,62.00
2018-09-19T13:03:49.392Z,62.30
2018-09-19T13:06:23.995Z,62.10
2018-09-19T13:08:58.798Z,61.70
2018-09-19T13:11:33.509Z,61.20
2018-09-19T13:14:08.188Z,61.50
2018-09-19T13:16:44.020Z,61.00
2018-09-19T13:19:19.001Z,60.90
2018-09-19T13:21:53.914Z,60.90
2018-09-19T13:24:28.352Z,60.70
2018-09-19T13:27:03.140Z,60.70
2018-09-19T13:29:37.916Z,60.90
2018-09-19T13:32:12.621Z,61.60
2018-09-19T13:34:47.295Z,61.30
2018-09-19T13:37:22.359Z,60.90
2018-09-19T13:39:57.016Z,60.90
2018-09-19T13:42:32.100Z,60.80
2018-09-19T13:45:06.274Z,61.70
2018-09-19T13:47:40.466Z,60.50
2018-09-19T13:51:22.416Z,60.60
2018-09-19T13:53:56.581Z,60.70
2018-09-19T13:56:32.072Z,60.50
2018-09-19T13:59:06.371Z,59.70
2018-09-19T14:01:41.706Z,59.60
2018-09-19T14:04:16.713Z,58.90
2018-09-19T14:06:51.469Z,59.20
2018-09-19T14:09:26.181Z,59.00
2018-09-19T14:12:00.993Z,58.50
2018-09-19T14:14:35.992Z,58.70
2018-09-19T14:17:11.686Z,58.20
2018-09-19T14:19:46.576Z,58.30
2018-09-19T14:22:22.125Z,58.90
2018-09-19T14:24:56.953Z,59.20
2018-09-19T14:27:31.910Z,59.60
2018-09-19T14:30:06.981Z,59.70
2018-09-19T14:32:41.221Z,60.10
2018-09-19T14:35:15.865Z,60.00
2018-09-19T14:37:50.756Z,60.10
2018-09-19T14:40:26.810Z,59.90
2018-09-19T14:43:00.888Z,59.80
2018-09-19T14:45:35.470Z,60.30
2018-09-19T14:48:10.583Z,60.20
2018-09-19T14:50:44.940Z,59.10
2018-09-19T14:53:26.468Z,58.60
2018-09-19T14:56:00.814Z,58.70
2018-09-19T14:58:35.453Z,58.80
2018-09-19T15:01:10.038Z,59.10
2018-09-19T15:03:44.888Z,59.50
2018-09-19T15:06:19.211Z,60.00
2018-09-19T15:08:53.849Z,60.40
2018-09-19T15:11:28.262Z,60.30
2018-09-19T15:14:03.054Z,60.30
2018-09-19T15:16:38.079Z,60.20
2018-09-19T15:19:12.228Z,59.80
2018-09-19T15:21:47.027Z,60.30
2018-09-19T15:24:22.313Z,60.20
2018-09-19T15:26:57.334Z,60.00
2018-09-19T15:29:31.865Z,60.00
2018-09-19T15:32:06.703Z,60.30
2018-09-19T15:34:41.143Z,60.10
2018-09-19T15:37:15.944Z,58.90
2018-09-19T15:39:50.807Z,59.50
2018-09-19T15:42:25.692Z,58.80
2018-09-19T15:45:00.286Z,58.80
2018-09-19T15:47:35.180Z,58.80
2018-09-19T15:50:10.020Z,58.90
2018-09-19T15:52:44.708Z,59.00
2018-09-19T15:55:19.851Z,59.70
2018-09-19T15:57:54.516Z,58.80
2018-09-19T16:00:30.176Z,58.90
2018-09-19T16:03:05.389Z,59.10
2018-09-19T16:05:40.217Z,59.80
2018-09-19T16:08:14.404Z,59.30
2018-09-19T16:10:49.108Z,60.20
2018-09-19T16:13:23.838Z,61.50
2018-09-19T16:15:58.680Z,62.10
2018-09-19T16:18:33.469Z,62.40
2018-09-19T16:21:08.339Z,61.40
2018-09-19T16:23:43.126Z,62.10
2018-09-19T16:26:18.162Z,61.70
2018-09-19T16:28:52.889Z,61.00
2018-09-19T16:31:27.543Z,60.50
2018-09-19T16:34:02.240Z,62.30
2018-09-19T16:36:37.214Z,62.70
2018-09-19T16:39:12.808Z,63.40
2018-09-19T16:41:47.646Z,63.80
2018-09-19T16:44:22.553Z,65.00
2018-09-19T16:46:57.321Z,65.80
2018-09-19T16:49:31.829Z,66.70
2018-09-19T16:52:06.572Z,67.80
2018-09-19T16:54:41.820Z,68.30
2018-09-19T16:57:16.394Z,69.10
2018-09-19T16:59:51.035Z,69.10
2018-09-19T17:02:25.841Z,69.80
2018-09-19T17:05:00.692Z,70.50
2018-09-19T17:07:35.504Z,71.60
2018-09-19T17:10:10.356Z,71.90
2018-09-19T17:12:45.074Z,72.30
2018-09-19T17:15:19.888Z,72.80
2018-09-19T17:17:54.648Z,73.10
2018-09-19T17:20:30.113Z,73.60
2018-09-19T17:23:04.905Z,73.80
2018-09-19T17:25:40.166Z,74.20
2018-09-19T17:28:14.705Z,74.30
2018-09-19T17:30:49.820Z,74.60
2018-09-19T17:33:24.368Z,74.70
2018-09-19T17:35:59.385Z,74.90
2018-09-19T17:38:34.333Z,75.20
2018-09-19T17:41:09.244Z,75.50
2018-09-19T17:43:44.208Z,75.80
2018-09-19T17:46:18.659Z,76.50
2018-09-19T17:48:53.281Z,76.60
2018-09-19T17:51:28.404Z,76.80
2018-09-19T17:54:09.360Z,77.10
2018-09-19T17:56:44.678Z,77.20
2018-09-19T17:59:19.181Z,77.40
2018-09-19T18:01:53.770Z,77.40
2018-09-19T18:04:28.917Z,77.50
2018-09-19T18:07:04.659Z,77.90
2018-09-19T18:09:39.124Z,78.30
2018-09-19T18:12:14.490Z,78.40
2018-09-19T18:14:49.025Z,79.50
2018-09-19T18:17:24.381Z,78.90
2018-09-19T18:20:00.066Z,79.20
2018-09-19T18:22:35.524Z,79.30
2018-09-19T18:25:10.269Z,79.30
2018-09-19T18:27:45.562Z,79.70
2018-09-19T18:30:19.915Z,79.80
2018-09-19T18:32:54.845Z,79.90
2018-09-19T18:35:30.859Z,80.10
2018-09-19T18:38:05.429Z,80.10
2018-09-19T18:40:40.152Z,80.20
2018-09-19T18:43:15.556Z,80.30
2018-09-19T18:45:49.776Z,80.40
2018-09-19T18:48:25.841Z,80.50
2018-09-19T18:51:01.441Z,80.50
2018-09-19T18:53:36.994Z,80.50
2018-09-19T18:56:12.889Z,80.70
2018-09-19T18:58:48.247Z,80.90
2018-09-19T19:01:28.547Z,80.90
2018-09-19T19:04:05.260Z,80.90
2018-09-19T19:06:41.505Z,80.90
2018-09-19T19:09:16.329Z,81.00
2018-09-19T19:11:52.915Z,81.10
2018-09-19T19:14:28.540Z,81.20
2018-09-19T19:17:04.180Z,81.30
2018-09-19T19:19:39.355Z,81.50
2018-09-19T19:22:15.847Z,81.60
2018-09-19T19:24:50.940Z,81.70
2018-09-19T19:27:26.644Z,81.60
2018-09-19T19:30:01.278Z,81.80
2018-09-19T19:32:38.365Z,81.90
2018-09-19T19:35:15.291Z,81.90
2018-09-19T19:37:49.932Z,82.20
2018-09-19T19:40:25.581Z,82.40
2018-09-19T19:45:43.898Z,82.80
2018-09-19T19:48:20.864Z,83.00
2018-09-19T19:50:58.024Z,83.10
2018-09-19T19:53:32.460Z,83.30
2018-09-19T19:56:07.896Z,83.20
2018-09-19T19:58:42.877Z,83.50
2018-09-19T20:01:17.501Z,83.40
2018-09-19T20:03:52.305Z,83.40
2018-09-19T20:06:27.241Z,83.50
2018-09-19T20:09:01.614Z,83.70
2018-09-19T20:11:37.364Z,83.90
2018-09-19T20:14:16.360Z,84.10
2018-09-19T20:16:53.398Z,84.20
2018-09-19T20:19:28.214Z,84.50
2018-09-19T20:22:03.096Z,84.60
2018-09-19T20:24:37.950Z,84.80
2018-09-19T20:27:12.784Z,85.00
2018-09-19T20:29:46.934Z,85.20
2018-09-19T20:32:21.873Z,85.30
2018-09-19T20:34:56.950Z,85.50
2018-09-19T20:37:31.133Z,85.80
2018-09-19T20:40:06.864Z,85.70
2018-09-19T20:42:42.520Z,85.80
2018-09-19T20:45:17.302Z,85.90
2018-09-19T20:47:52.043Z,86.00
2018-09-19T20:50:27.224Z,86.00
2018-09-19T20:53:01.594Z,86.20
2018-09-19T20:55:36.354Z,86.10
2018-09-19T20:58:11.752Z,86.40
2018-09-19T21:00:46.080Z,86.40
2018-09-19T21:03:22.364Z,86.50
2018-09-19T21:05:57.181Z,86.50
2018-09-19T21:08:31.852Z,86.60
2018-09-19T21:11:06.745Z,87.00
2018-09-19T21:13:41.696Z,86.90
2018-09-19T21:16:15.987Z,86.80
2018-09-19T21:18:51.160Z,87.00
2018-09-19T21:21:25.501Z,87.00
2018-09-19T21:24:00.207Z,87.10
2018-09-19T21:26:35.183Z,87.10
2018-09-19T21:29:09.825Z,87.30
2018-09-19T21:31:44.886Z,87.30
2018-09-19T21:34:19.404Z,87.30
2018-09-19T21:36:54.196Z,87.40
2018-09-19T21:39:29.072Z,87.40
2018-09-19T21:42:04.005Z,87.40
2018-09-19T21:44:38.573Z,87.50
2018-09-19T21:47:13.378Z,87.60
2018-09-19T21:49:48.045Z,87.70
2018-09-19T21:52:22.976Z,87.80
2018-09-19T21:54:58.275Z,87.90
2018-09-19T21:57:33.561Z,87.80
2018-09-19T22:00:09.299Z,88.00
2018-09-19T22:02:43.832Z,88.00
2018-09-19T22:05:18.845Z,88.00
2018-09-19T22:07:53.337Z,88.00
2018-09-19T22:10:28.992Z,88.20
2018-09-19T22:13:04.109Z,88.10
2018-09-19T22:15:39.353Z,88.10
2018-09-19T22:18:13.810Z,88.20
2018-09-19T22:20:48.608Z,88.20
2018-09-19T22:23:23.306Z,88.10
2018-09-19T22:25:58.122Z,88.10
2018-09-19T22:28:33.085Z,88.30
2018-09-19T22:31:07.716Z,88.50
2018-09-19T22:33:42.709Z,88.70
2018-09-19T22:36:17.275Z,89.20
2018-09-19T22:38:51.896Z,88.70
2018-09-19T22:41:26.764Z,88.70
2018-09-19T22:44:01.305Z,88.70
2018-09-19T22:46:36.012Z,88.80
2018-09-19T22:49:10.700Z,88.80
2018-09-19T22:51:46.090Z,88.80
2018-09-19T22:54:21.257Z,88.90
2018-09-19T22:56:55.840Z,88.80
2018-09-19T22:59:30.735Z,88.80
2018-09-19T23:02:05.029Z,88.80
2018-09-19T23:04:39.241Z,88.60
2018-09-19T23:07:14.317Z,88.70
2018-09-19T23:09:49.209Z,88.60
2018-09-19T23:12:24.826Z,88.70
2018-09-19T23:14:59.978Z,88.60
2018-09-19T23:17:35.242Z,88.50
2018-09-19T23:20:10.361Z,88.50
2018-09-19T23:22:45.233Z,88.50
2018-09-19T23:25:20.193Z,89.10
2018-09-19T23:27:54.637Z,88.30
2018-09-19T23:30:29.140Z,88.30
2018-09-19T23:33:03.807Z,88.30
2018-09-19T23:35:38.310Z,88.20
2018-09-19T23:38:12.873Z,88.90
2018-09-19T23:40:47.540Z,88.20
2018-09-19T23:43:22.121Z,88.10
2018-09-19T23:45:57.795Z,88.20
2018-09-19T23:48:32.458Z,88.20
2018-09-19T23:51:07.456Z,88.20
2018-09-19T23:53:41.604Z,88.30
2018-09-19T23:56:16.488Z,88.30
2018-09-19T23:58:51.149Z,88.20
